createdAt,value
2023-04-14T00:02:26.734Z,95738.22
2023-04-14T00:04:55.551Z,95707.22
2023-04-14T00:07:25.120Z,95667.53
2023-04-14T00:09:53.274Z,95716.63
2023-04-14T00:12:21.702Z,95670.84
2023-04-14T00:14:51.124Z,95728.66
2023-04-14T00:17:19.447Z,95754.13
2023-04-14T00:19:47.764Z,95731.19
2023-04-14T00:22:16.100Z,95748.44
2023-04-14T00:24:45.865Z,95724.13
2023-04-14T00:27:14.248Z,95779.41
2023-04-14T00:29:42.503Z,95764.22
2023-04-14T00:32:11.470Z,95756.97
2023-04-14T00:34:39.653Z,95742.44
2023-04-14T00:37:07.849Z,95743.31
2023-04-14T00:39:36.401Z,95765.47
2023-04-14T00:42:06.324Z,95734.06
2023-04-14T00:44:34.563Z,95740.00
2023-04-14T00:47:03.746Z,95825.91
2023-04-14T00:49:32.017Z,95763.50
2023-04-14T00:52:00.670Z,95779.66
2023-04-14T00:54:31.152Z,95732.16
2023-04-14T00:57:00.000Z,95791.44
2023-04-14T00:59:29.906Z,95777.69
2023-04-14T01:01:58.704Z,95747.84
2023-04-14T01:04:36.684Z,95779.59
2023-04-14T01:07:09.848Z,95767.84
2023-04-14T01:09:39.673Z,95757.53
2023-04-14T01:12:18.703Z,95766.56
2023-04-14T01:14:58.250Z,95755.09
2023-04-14T01:17:33.995Z,95712.81
2023-04-14T01:20:14.513Z,95748.28
2023-04-14T01:22:49.205Z,95757.03
2023-04-14T01:26:04.454Z,95757.13
2023-04-14T01:29:08.065Z,95714.69
2023-04-14T01:31:42.642Z,95787.84
2023-04-14T01:34:21.831Z,95440.09
2023-04-14T01:36:58.274Z,95736.41
2023-04-14T01:39:36.559Z,95757.94
2023-04-14T01:42:08.850Z,95804.59
2023-04-14T01:44:40.442Z,95746.13
2023-04-14T01:47:14.905Z,95774.25
2023-04-14T01:49:44.394Z,95781.38
2023-04-14T01:52:16.418Z,95792.34
2023-04-14T01:54:52.327Z,95782.88
2023-04-14T01:57:23.010Z,95780.16
2023-04-14T01:59:56.328Z,95739.56
2023-04-14T02:02:28.702Z,95755.19
2023-04-14T02:04:58.124Z,95772.59
2023-04-14T02:07:34.737Z,95745.41
2023-04-14T02:10:04.808Z,95741.94
2023-04-14T02:12:33.414Z,95784.78
2023-04-14T02:15:03.693Z,95569.44
2023-04-14T02:17:34.532Z,95770.25
2023-04-14T02:20:03.758Z,95758.19
2023-04-14T02:22:31.955Z,95778.19
2023-04-14T02:25:01.923Z,95755.59
2023-04-14T02:27:37.460Z,95743.56
2023-04-14T02:30:13.713Z,95715.97
2023-04-14T02:32:49.070Z,95778.69
2023-04-14T02:35:21.771Z,95749.81
2023-04-14T02:37:56.025Z,95758.44
2023-04-14T02:40:30.903Z,95790.25
2023-04-14T02:43:05.972Z,95773.09
2023-04-14T02:45:35.113Z,95756.78
2023-04-14T02:48:11.526Z,95747.44
2023-04-14T02:50:45.227Z,95728.84
2023-04-14T02:53:22.244Z,95707.69
2023-04-14T02:55:52.971Z,95674.94
2023-04-14T02:58:22.698Z,95787.66
2023-04-14T03:00:52.221Z,95790.53
2023-04-14T03:03:22.628Z,95744.16
2023-04-14T03:05:51.661Z,95752.84
2023-04-14T03:08:21.474Z,95782.25
2023-04-14T03:10:55.797Z,95791.00
2023-04-14T03:13:28.430Z,95729.91
2023-04-14T03:15:57.674Z,95799.25
2023-04-14T03:18:28.645Z,95670.69
2023-04-14T03:21:00.801Z,95741.41
2023-04-14T03:23:30.072Z,95751.44
2023-04-14T03:26:04.310Z,95686.50
2023-04-14T03:28:37.992Z,95761.47
2023-04-14T03:31:10.386Z,95762.47
2023-04-14T03:33:55.746Z,95743.78
2023-04-14T03:36:27.233Z,95743.19
2023-04-14T03:39:01.734Z,95763.53
2023-04-14T03:41:36.150Z,95740.00
2023-04-14T03:44:06.606Z,95750.91
2023-04-14T03:46:34.938Z,95756.19
2023-04-14T03:49:11.077Z,95735.28
2023-04-14T03:51:41.267Z,95740.31
2023-04-14T03:54:12.704Z,95735.63
2023-04-14T03:56:41.427Z,95711.22
2023-04-14T03:59:15.378Z,95696.94
2023-04-14T04:01:46.272Z,95712.81
2023-04-14T04:04:40.869Z,95691.22
2023-04-14T04:07:14.424Z,95718.31
2023-04-14T04:09:43.874Z,95754.78
2023-04-14T04:12:14.848Z,95690.19
2023-04-14T04:14:43.169Z,95768.50
2023-04-14T04:17:18.412Z,95754.19
2023-04-14T04:19:50.410Z,95734.31
2023-04-14T04:22:22.965Z,95746.94
2023-04-14T04:24:52.669Z,95681.94
2023-04-14T04:27:28.385Z,95746.25
2023-04-14T04:30:08.405Z,95715.19
2023-04-14T04:32:38.445Z,95774.13
2023-04-14T04:35:09.697Z,95730.41
2023-04-14T04:37:39.189Z,95797.59
2023-04-14T04:40:09.534Z,95730.25
2023-04-14T04:42:43.081Z,95755.47
2023-04-14T04:45:14.790Z,95764.91
2023-04-14T04:47:43.300Z,95750.50
2023-04-14T04:50:13.733Z,95723.53
2023-04-14T04:52:41.936Z,95764.22
2023-04-14T04:55:10.791Z,95789.28
2023-04-14T04:57:39.516Z,95740.78
2023-04-14T05:00:09.979Z,95768.63
2023-04-14T05:02:38.308Z,95745.59
2023-04-14T05:05:08.733Z,95776.53
2023-04-14T05:07:38.388Z,95730.84
2023-04-14T05:10:07.991Z,95751.47
2023-04-14T05:12:36.267Z,95764.22
2023-04-14T05:15:05.095Z,95783.13
2023-04-14T05:17:33.992Z,95789.66
2023-04-14T05:20:04.152Z,95798.03
2023-04-14T05:22:33.887Z,95781.47
2023-04-14T05:25:04.013Z,95744.59
2023-04-14T05:27:33.297Z,95763.91
2023-04-14T05:30:02.056Z,95809.91
2023-04-14T05:32:30.641Z,95822.25
2023-04-14T05:34:58.922Z,95811.44
2023-04-14T05:37:29.866Z,95805.09
2023-04-14T05:39:58.196Z,95855.06
2023-04-14T05:42:27.786Z,95795.38
2023-04-14T05:44:56.130Z,95821.88
2023-04-14T05:47:24.491Z,95753.72
2023-04-14T05:49:52.821Z,95834.53
2023-04-14T05:52:21.371Z,95772.91
2023-04-14T05:54:49.801Z,95844.72
2023-04-14T05:57:17.991Z,95785.78
2023-04-14T05:59:47.492Z,95858.88
2023-04-14T06:02:15.879Z,95883.78
2023-04-14T06:05:12.863Z,95800.03
2023-04-14T06:07:42.117Z,95849.41
2023-04-14T06:10:11.951Z,95853.00
2023-04-14T06:12:40.530Z,95828.75
2023-04-14T06:15:10.960Z,95856.66
2023-04-14T06:17:39.880Z,95816.13
2023-04-14T06:20:10.166Z,95841.00
2023-04-14T06:22:40.495Z,95845.50
2023-04-14T06:25:10.929Z,95836.03
2023-04-14T06:27:39.208Z,95808.88
2023-04-14T06:30:10.745Z,95789.75
2023-04-14T06:32:39.019Z,95810.03
2023-04-14T06:35:12.048Z,95856.88
2023-04-14T06:37:44.704Z,95780.13
2023-04-14T06:40:14.005Z,95815.88
2023-04-14T06:42:42.555Z,95803.69
2023-04-14T06:45:12.853Z,95813.28
2023-04-14T06:47:41.531Z,95795.06
2023-04-14T06:50:10.841Z,95769.69
2023-04-14T06:52:39.198Z,95820.03
2023-04-14T06:55:08.182Z,95777.28
2023-04-14T06:57:36.469Z,95801.50
2023-04-14T07:00:09.445Z,95818.91
2023-04-14T07:02:39.287Z,95762.72
2023-04-14T07:05:09.031Z,95785.72
2023-04-14T07:07:40.108Z,95745.84
2023-04-14T07:10:09.692Z,95741.44
2023-04-14T07:12:38.011Z,95719.13
2023-04-14T07:15:08.249Z,95820.59
2023-04-14T07:17:38.717Z,95793.59
2023-04-14T07:20:09.352Z,95753.22
2023-04-14T07:22:37.962Z,95813.88
2023-04-14T07:25:07.126Z,95782.09
2023-04-14T07:27:35.427Z,95787.47
2023-04-14T07:30:03.826Z,95757.75
2023-04-14T07:32:33.016Z,95757.13
2023-04-14T07:35:02.542Z,95791.28
2023-04-14T07:37:30.769Z,95773.66
2023-04-14T07:39:59.453Z,95776.41
2023-04-14T07:42:27.886Z,95779.44
2023-04-14T07:44:56.089Z,95800.28
2023-04-14T07:47:24.284Z,95777.59
2023-04-14T07:49:54.435Z,95748.59
2023-04-14T07:52:24.069Z,95798.78
2023-04-14T07:54:52.310Z,95777.06
2023-04-14T07:57:20.546Z,95758.25
2023-04-14T07:59:48.731Z,95798.84
2023-04-14T08:02:17.400Z,95768.91
2023-04-14T08:04:45.676Z,95785.09
2023-04-14T08:07:14.030Z,95787.03
2023-04-14T08:09:43.715Z,95777.72
2023-04-14T08:12:11.876Z,95781.66
2023-04-14T08:14:40.203Z,95789.34
2023-04-14T08:17:08.467Z,95751.22
2023-04-14T08:19:37.066Z,95750.56
2023-04-14T08:22:05.450Z,95735.34
2023-04-14T08:24:35.416Z,95800.31
2023-04-14T08:27:07.275Z,95821.09
2023-04-14T08:29:35.583Z,95766.41
2023-04-14T08:32:04.795Z,95753.47
2023-04-14T08:34:33.132Z,95792.75
2023-04-14T08:37:01.699Z,95769.66
2023-04-14T08:39:30.261Z,95791.31
2023-04-14T08:41:58.500Z,95794.09
2023-04-14T08:44:28.107Z,95758.53
2023-04-14T08:46:56.845Z,95650.84
2023-04-14T08:49:34.682Z,95762.59
2023-04-14T08:52:04.788Z,95751.56
2023-04-14T08:54:33.177Z,95682.34
2023-04-14T08:57:03.747Z,95781.03
2023-04-14T08:59:33.900Z,95790.88
2023-04-14T09:02:05.566Z,95739.75
2023-04-14T09:04:35.028Z,95672.16
2023-04-14T09:07:03.940Z,95700.41
2023-04-14T09:09:32.895Z,95746.34
2023-04-14T09:12:03.162Z,95773.72
2023-04-14T09:14:34.647Z,95770.28
2023-04-14T09:17:03.102Z,95761.75
2023-04-14T09:19:31.908Z,95764.28
2023-04-14T09:22:00.767Z,95764.56
2023-04-14T09:24:32.506Z,95757.59
2023-04-14T09:27:03.610Z,95745.78
2023-04-14T09:29:33.868Z,95764.94
2023-04-14T09:32:02.134Z,95723.03
2023-04-14T09:34:30.495Z,95727.19
2023-04-14T09:37:05.656Z,95740.28
2023-04-14T09:39:34.749Z,95785.69
2023-04-14T09:42:03.652Z,95773.56
2023-04-14T09:44:33.277Z,95728.53
2023-04-14T09:47:05.142Z,95734.69
2023-04-14T09:49:33.736Z,95745.09
2023-04-14T09:52:09.056Z,95744.28
2023-04-14T09:54:37.760Z,95750.22
2023-04-14T09:57:06.280Z,95777.16
2023-04-14T09:59:37.995Z,95748.19
2023-04-14T10:02:09.076Z,95736.72
2023-04-14T10:04:38.975Z,95757.09
2023-04-14T10:07:08.985Z,95771.75
2023-04-14T10:09:38.708Z,95771.09
2023-04-14T10:12:13.328Z,95731.75
2023-04-14T10:14:44.153Z,95705.78
2023-04-14T10:17:13.653Z,95771.50
2023-04-14T10:19:42.223Z,95727.81
2023-04-14T10:22:10.796Z,95724.94
2023-04-14T10:24:39.132Z,95667.03
2023-04-14T10:27:07.680Z,95733.00
2023-04-14T10:29:36.069Z,95722.25
2023-04-14T10:32:08.801Z,95724.84
2023-04-14T10:34:40.514Z,95737.06
2023-04-14T10:37:14.830Z,95739.97
2023-04-14T10:39:43.949Z,95655.53
2023-04-14T10:42:12.325Z,95708.44
2023-04-14T10:44:40.856Z,95721.84
2023-04-14T10:47:10.830Z,95657.31
2023-04-14T10:49:41.491Z,95670.69
2023-04-14T10:52:33.553Z,95689.50
2023-04-14T10:55:08.914Z,95700.13
2023-04-14T10:57:43.581Z,95693.47
2023-04-14T11:00:26.232Z,95679.00
2023-04-14T11:03:04.479Z,95680.81
2023-04-14T11:05:35.111Z,95660.72
2023-04-14T11:08:14.616Z,95675.44
2023-04-14T11:10:48.565Z,95654.09
2023-04-14T11:13:21.130Z,95704.66
2023-04-14T11:15:51.926Z,95687.22
2023-04-14T11:18:34.065Z,95666.94
2023-04-14T11:21:07.670Z,95700.25
2023-04-14T11:23:38.387Z,95649.28
2023-04-14T11:26:08.165Z,95688.97
2023-04-14T11:28:38.192Z,95677.91
2023-04-14T11:31:08.850Z,95664.63
2023-04-14T11:33:41.543Z,95657.84
2023-04-14T11:36:14.392Z,95619.91
2023-04-14T11:38:44.211Z,95688.09
2023-04-14T11:41:16.746Z,95688.72
2023-04-14T11:43:48.822Z,95641.78
2023-04-14T11:46:20.533Z,95684.00
2023-04-14T11:48:55.977Z,95681.16
2023-04-14T11:51:32.423Z,95662.47
2023-04-14T11:54:01.530Z,95667.19
2023-04-14T11:56:31.873Z,95659.28
2023-04-14T11:59:01.878Z,95667.34
2023-04-14T12:01:31.378Z,95592.88
2023-04-14T12:07:13.130Z,95657.66
2023-04-14T12:09:44.737Z,95641.75
2023-04-14T12:12:14.582Z,95617.63
2023-04-14T12:14:48.229Z,95632.81
2023-04-14T12:17:17.873Z,95600.78
2023-04-14T12:19:48.912Z,95647.28
2023-04-14T12:22:25.045Z,95633.91
2023-04-14T12:24:53.542Z,95595.69
2023-04-14T12:27:23.728Z,95606.56
2023-04-14T12:29:52.739Z,95604.97
2023-04-14T12:32:22.230Z,95625.34
2023-04-14T12:34:59.046Z,95558.34
2023-04-14T12:37:28.840Z,95600.13
2023-04-14T12:39:59.302Z,95603.75
2023-04-14T12:42:29.646Z,95450.28
2023-04-14T12:45:00.478Z,95584.25
2023-04-14T12:47:34.050Z,95605.47
2023-04-14T12:50:23.455Z,95609.41
2023-04-14T12:52:52.937Z,95557.78
2023-04-14T12:55:22.970Z,95587.88
2023-04-14T12:57:54.094Z,95605.94
2023-04-14T13:00:23.440Z,95616.22
2023-04-14T13:02:52.272Z,95628.25
2023-04-14T13:05:22.295Z,95456.22
2023-04-14T13:07:50.559Z,95595.22
2023-04-14T13:10:18.910Z,95512.50
2023-04-14T13:12:47.188Z,95589.25
2023-04-14T13:16:09.472Z,95566.34
2023-04-14T13:18:03.766Z,95527.38
2023-04-14T13:20:33.732Z,95542.41
2023-04-14T13:23:02.100Z,95554.38
2023-04-14T13:25:55.542Z,95539.28
2023-04-14T13:28:23.854Z,95557.56
2023-04-14T13:30:54.938Z,95545.78
2023-04-14T13:33:24.575Z,95534.59
2023-04-14T13:35:55.635Z,95551.25
2023-04-14T13:38:24.103Z,95561.63
2023-04-14T13:40:52.376Z,95500.47
2023-04-14T13:43:21.020Z,95536.00
2023-04-14T13:45:49.273Z,95487.75
2023-04-14T13:48:17.518Z,95512.44
2023-04-14T13:50:45.712Z,95533.75
2023-04-14T13:53:15.265Z,95494.22
2023-04-14T13:55:43.553Z,95535.19
2023-04-14T13:58:11.831Z,95495.78
2023-04-14T14:00:40.327Z,95529.03
2023-04-14T14:03:08.685Z,95520.56
2023-04-14T14:05:36.980Z,95567.09
2023-04-14T14:08:07.051Z,95535.81
2023-04-14T14:10:36.718Z,95504.78
2023-04-14T14:13:05.595Z,95551.25
2023-04-14T14:15:34.486Z,95542.88
2023-04-14T14:18:03.088Z,95601.25
2023-04-14T14:20:31.380Z,95558.63
2023-04-14T14:22:59.588Z,95546.84
2023-04-14T14:25:28.422Z,95558.84
2023-04-14T14:27:58.208Z,95510.56
2023-04-14T14:30:26.642Z,95570.72
2023-04-14T14:32:54.894Z,95553.38
2023-04-14T14:35:24.132Z,95580.47
2023-04-14T14:37:52.368Z,95600.44
2023-04-14T14:40:20.838Z,95571.69
2023-04-14T14:42:49.099Z,95583.75
2023-04-14T14:45:27.479Z,95562.78
2023-04-14T14:48:00.107Z,95587.59
2023-04-14T14:50:28.514Z,95626.53
2023-04-14T14:52:57.133Z,95534.88
2023-04-14T14:55:25.729Z,95576.56
2023-04-14T14:57:53.964Z,95555.91
2023-04-14T15:00:23.598Z,95550.38
2023-04-14T15:02:51.960Z,95603.44
2023-04-14T15:05:20.299Z,95609.69
2023-04-14T15:07:48.470Z,95545.47
2023-04-14T15:10:16.748Z,95572.00
2023-04-14T15:12:44.962Z,95550.34
2023-04-14T15:15:13.365Z,95529.09
2023-04-14T15:17:42.980Z,95538.47
2023-04-14T15:20:12.824Z,95563.69
2023-04-14T15:22:41.168Z,95579.66
2023-04-14T15:25:10.602Z,95533.97
2023-04-14T15:27:38.842Z,95565.75
2023-04-14T15:30:08.968Z,95566.91
2023-04-14T15:32:37.617Z,95546.69
2023-04-14T15:35:08.714Z,95501.25
2023-04-14T15:37:37.255Z,95496.94
2023-04-14T15:40:06.181Z,95486.44
2023-04-14T15:42:34.440Z,95559.72
2023-04-14T15:45:02.744Z,95540.34
2023-04-14T15:47:31.637Z,95538.94
2023-04-14T15:50:09.569Z,95464.00
2023-04-14T15:52:40.238Z,95485.25
2023-04-14T15:55:10.598Z,95556.06
2023-04-14T15:57:38.871Z,95498.06
2023-04-14T16:00:08.917Z,95494.38
2023-04-14T16:02:45.797Z,95545.72
2023-04-14T16:05:14.345Z,95525.94
2023-04-14T16:07:44.796Z,95528.75
2023-04-14T16:10:13.410Z,95548.00
2023-04-14T16:12:41.658Z,95462.06
2023-04-14T16:15:11.478Z,95552.38
2023-04-14T16:17:39.738Z,95527.56
2023-04-14T16:20:08.645Z,95583.28
2023-04-14T16:22:37.049Z,95471.03
2023-04-14T16:25:08.118Z,95486.38
2023-04-14T16:27:36.379Z,95508.41
2023-04-14T16:30:05.111Z,95549.75
2023-04-14T16:32:33.291Z,95509.84
2023-04-14T16:35:01.920Z,95457.41
2023-04-14T16:37:30.168Z,95513.28
2023-04-14T16:39:58.678Z,95539.75
2023-04-14T16:42:28.508Z,95444.19
2023-04-14T16:44:57.193Z,95552.47
2023-04-14T16:47:25.525Z,95563.00
2023-04-14T16:49:54.029Z,95545.16
2023-04-14T16:52:22.424Z,95533.09
2023-04-14T16:54:50.625Z,95559.63
2023-04-14T16:57:18.833Z,95555.38
2023-04-14T16:59:48.697Z,95566.66
2023-04-14T17:02:17.002Z,95503.38
2023-04-14T17:04:45.709Z,95571.50
2023-04-14T17:07:14.105Z,95631.66
2023-04-14T17:09:42.837Z,95572.72
2023-04-14T17:12:11.068Z,95580.22
2023-04-14T17:14:39.518Z,95549.47
2023-04-14T17:17:09.166Z,95589.13
2023-04-14T17:19:39.012Z,95571.66
2023-04-14T17:22:07.490Z,95605.72
2023-04-14T17:24:35.700Z,95572.41
2023-04-14T17:27:03.983Z,95618.00
2023-04-14T17:29:33.086Z,95572.03
2023-04-14T17:32:02.582Z,95530.34
2023-04-14T17:34:32.401Z,95614.25
2023-04-14T17:37:00.879Z,95619.50
2023-04-14T17:39:29.178Z,95573.28
2023-04-14T17:41:58.910Z,95567.28
2023-04-14T17:44:33.598Z,95585.06
2023-04-14T17:47:03.282Z,95581.28
2023-04-14T17:49:34.164Z,95591.81
2023-04-14T17:52:17.577Z,95582.09
2023-04-14T17:54:46.647Z,95574.25
2023-04-14T17:57:15.059Z,95597.28
2023-04-14T17:59:44.823Z,95594.91
2023-04-14T18:02:15.812Z,95569.38
2023-04-14T18:05:11.349Z,95581.13
2023-04-14T18:07:39.571Z,95564.94
2023-04-14T18:10:09.426Z,95581.88
2023-04-14T18:12:37.612Z,95578.31
2023-04-14T18:15:07.156Z,95612.13
2023-04-14T18:17:36.439Z,95570.84
2023-04-14T18:20:06.035Z,95568.75
2023-04-14T18:22:35.654Z,95604.16
2023-04-14T18:25:03.996Z,95588.22
2023-04-14T18:30:03.749Z,95570.75
2023-04-14T18:32:32.201Z,95613.06
2023-04-14T18:35:00.865Z,95633.41
2023-04-14T18:37:29.071Z,95649.16
2023-04-14T18:39:58.940Z,95610.38
2023-04-14T18:42:27.362Z,95628.31
2023-04-14T18:44:55.572Z,95586.91
2023-04-14T18:47:23.925Z,95632.66
2023-04-14T18:49:52.874Z,95638.06
2023-04-14T18:52:21.101Z,95576.09
2023-04-14T18:54:49.497Z,95602.31
2023-04-14T18:57:19.198Z,95547.84
2023-04-14T18:59:47.690Z,95636.50
2023-04-14T19:02:15.935Z,95581.25
2023-04-14T19:04:44.753Z,95636.47
2023-04-14T19:07:13.092Z,95603.88
2023-04-14T19:09:41.288Z,95631.78
2023-04-14T19:12:18.457Z,95595.72
2023-04-14T19:14:56.997Z,95574.72
2023-04-14T19:17:26.037Z,95628.44
2023-04-14T19:19:54.904Z,95583.47
2023-04-14T19:22:23.056Z,95600.50
2023-04-14T19:24:51.536Z,95621.66
2023-04-14T19:27:19.825Z,95601.97
2023-04-14T19:29:48.086Z,95609.16
2023-04-14T19:32:18.254Z,95627.84
2023-04-14T19:34:46.593Z,95640.16
2023-04-14T19:37:14.938Z,95606.66
2023-04-14T19:39:43.155Z,95625.94
2023-04-14T19:42:11.313Z,95640.72
2023-04-14T19:44:39.930Z,95613.13
2023-04-14T19:47:08.283Z,95602.19
2023-04-14T19:49:37.911Z,95625.47
2023-04-14T19:52:06.225Z,95580.97
2023-04-14T19:54:34.523Z,95598.69
2023-04-14T19:57:03.344Z,95630.75
2023-04-14T19:59:32.841Z,95602.59
2023-04-14T20:02:01.853Z,95561.09
2023-04-14T20:04:33.281Z,95654.28
2023-04-14T20:07:03.383Z,95695.41
2023-04-14T20:09:31.564Z,95265.75
2023-04-14T20:12:02.074Z,95613.75
2023-04-14T20:14:30.494Z,95609.00
2023-04-14T20:16:59.442Z,95635.63
2023-04-14T20:19:27.833Z,95604.06
2023-04-14T20:21:56.641Z,95593.81
2023-04-14T20:24:26.268Z,95639.84
2023-04-14T20:26:55.450Z,95551.28
2023-04-14T20:29:24.148Z,95648.94
2023-04-14T20:31:53.454Z,95631.25
2023-04-14T20:34:21.664Z,95607.13
2023-04-14T20:36:52.994Z,95603.34
2023-04-14T20:39:21.218Z,95592.22
2023-04-14T20:41:50.929Z,95618.19
2023-04-14T20:44:19.556Z,95605.78
2023-04-14T20:46:48.232Z,95645.94
2023-04-14T20:49:16.665Z,95620.78
2023-04-14T20:51:46.787Z,95633.16
2023-04-14T20:54:15.034Z,95577.00
2023-04-14T20:56:44.100Z,95618.06
2023-04-14T20:59:13.915Z,95616.13
2023-04-14T21:01:42.715Z,95637.34
2023-04-14T21:04:11.300Z,95592.78
2023-04-14T21:06:39.580Z,95620.00
2023-04-14T21:09:08.909Z,95663.75
2023-04-14T21:11:38.560Z,95596.75
2023-04-14T21:15:28.296Z,95587.78
2023-04-14T21:16:58.667Z,95577.19
2023-04-14T21:19:28.326Z,95598.69
2023-04-14T21:21:56.522Z,95619.75
2023-04-14T21:24:25.016Z,95572.84
2023-04-14T21:26:53.342Z,95574.81
2023-04-14T21:29:21.577Z,95627.69
2023-04-14T21:31:49.831Z,95591.78
2023-04-14T21:34:19.438Z,95582.38
2023-04-14T21:36:48.399Z,95694.97
2023-04-14T21:39:17.546Z,95623.91
2023-04-14T21:41:45.766Z,95624.47
2023-04-14T21:44:15.683Z,95612.59
2023-04-14T21:46:43.958Z,95624.19
2023-04-14T21:49:12.519Z,95611.13
2023-04-14T21:51:42.184Z,95604.56
2023-04-14T21:54:11.120Z,95605.72
2023-04-14T21:56:39.727Z,95616.34
2023-04-14T21:59:08.201Z,95617.75
2023-04-14T22:01:36.551Z,95618.78
2023-04-14T22:04:11.408Z,95632.38
2023-04-14T22:06:45.847Z,95614.13
2023-04-14T22:09:14.118Z,95645.38
2023-04-14T22:11:43.688Z,95607.53
2023-04-14T22:14:11.940Z,95631.97
2023-04-14T22:16:41.100Z,95639.53
2023-04-14T22:19:10.399Z,95599.06
2023-04-14T22:21:39.236Z,95617.16
2023-04-14T22:24:09.745Z,95597.91
2023-04-14T22:26:37.967Z,95594.03
2023-04-14T22:29:06.284Z,95614.34
2023-04-14T22:31:40.842Z,95625.19
2023-04-14T22:34:09.718Z,95630.13
2023-04-14T22:36:38.128Z,95591.16
2023-04-14T22:39:06.512Z,95580.88
2023-04-14T22:41:36.111Z,95566.22
2023-04-14T22:44:05.947Z,95602.91
2023-04-14T22:46:34.465Z,95618.88
2023-04-14T22:49:03.004Z,95586.84
2023-04-14T22:51:31.835Z,95629.91
2023-04-14T22:54:00.041Z,95618.88
2023-04-14T22:56:28.783Z,95595.88
2023-04-14T22:58:58.977Z,95578.28
2023-04-14T23:01:28.959Z,95632.41
2023-04-14T23:03:57.469Z,95599.25
2023-04-14T23:06:25.799Z,95620.72
2023-04-14T23:08:54.094Z,95595.34
2023-04-14T23:11:22.333Z,95641.97
2023-04-14T23:13:51.402Z,95614.88
2023-04-14T23:16:21.301Z,95618.94
2023-04-14T23:18:52.443Z,95449.66
2023-04-14T23:21:22.111Z,95593.56
2023-04-14T23:23:50.648Z,95620.81
2023-04-14T23:26:19.637Z,95591.09
2023-04-14T23:28:48.178Z,95603.53
2023-04-14T23:31:17.413Z,95570.78
2023-04-14T23:33:49.450Z,95591.03
2023-04-14T23:36:18.641Z,95614.91
2023-04-14T23:38:46.996Z,95611.06
2023-04-14T23:41:15.684Z,95615.91
2023-04-14T23:43:44.003Z,95638.00
2023-04-14T23:46:12.359Z,95562.03
2023-04-14T23:48:40.675Z,95527.09
2023-04-14T23:51:14.312Z,95588.66
2023-04-14T23:53:44.891Z,95564.53
2023-04-14T23:56:13.163Z,95585.84
2023-04-14T23:58:41.449Z,95569.69
